createdAt,value
2023-10-10T00:02:20.740Z,100.00
2023-10-10T00:04:56.097Z,100.00
2023-10-10T00:07:28.503Z,100.00
2023-10-10T00:09:57.593Z,100.00
2023-10-10T00:12:30.836Z,100.00
2023-10-10T00:14:59.708Z,100.00
2023-10-10T00:17:38.620Z,100.00
2023-10-10T00:20:27.341Z,100.00
2023-10-10T00:23:00.843Z,100.00
2023-10-10T00:25:32.605Z,100.00
2023-10-10T00:28:06.732Z,100.00
2023-10-10T00:30:44.962Z,100.00
2023-10-10T00:33:18.969Z,100.00
2023-10-10T00:35:49.279Z,100.00
2023-10-10T00:38:26.303Z,100.00
2023-10-10T00:40:59.291Z,100.00
2023-10-10T00:43:27.485Z,100.00
2023-10-10T00:45:58.974Z,100.00
2023-10-10T00:48:31.549Z,100.00
2023-10-10T00:51:07.839Z,100.00
2023-10-10T00:53:37.270Z,100.00
2023-10-10T00:56:11.691Z,100.00
2023-10-10T00:58:40.378Z,100.00
2023-10-10T01:01:11.936Z,100.00
2023-10-10T01:03:52.263Z,100.00
2023-10-10T01:06:26.821Z,100.00
2023-10-10T01:08:59.105Z,100.00
2023-10-10T01:11:27.889Z,100.00
2023-10-10T01:13:58.413Z,100.00
2023-10-10T01:16:29.676Z,99.91
2023-10-10T01:18:59.067Z,99.71
2023-10-10T01:21:33.916Z,99.91
2023-10-10T01:24:23.020Z,100.00
2023-10-10T01:26:52.516Z,100.00
2023-10-10T01:29:21.849Z,100.00
2023-10-10T01:31:52.966Z,99.88
2023-10-10T01:34:32.619Z,100.00
2023-10-10T01:37:10.718Z,100.00
2023-10-10T01:39:56.725Z,99.68
2023-10-10T01:42:39.214Z,99.59
2023-10-10T01:45:09.722Z,99.69
2023-10-10T01:47:41.518Z,99.88
2023-10-10T01:50:12.393Z,100.00
2023-10-10T01:52:48.360Z,100.00
2023-10-10T01:55:18.521Z,99.88
2023-10-10T01:57:46.796Z,99.94
2023-10-10T02:00:23.559Z,99.17
2023-10-10T02:02:54.538Z,99.88
2023-10-10T02:05:39.210Z,100.00
2023-10-10T02:08:27.898Z,98.91
2023-10-10T02:10:57.386Z,99.22
2023-10-10T02:13:26.967Z,98.07
2023-10-10T02:15:56.141Z,98.83
2023-10-10T02:18:40.986Z,98.43
2023-10-10T02:21:17.136Z,98.75
2023-10-10T02:23:48.473Z,99.04
2023-10-10T02:26:49.309Z,99.57
2023-10-10T02:29:35.701Z,99.74
2023-10-10T02:32:20.826Z,98.95
2023-10-10T02:35:02.804Z,99.34
2023-10-10T02:37:31.582Z,99.71
2023-10-10T02:40:17.854Z,98.69
2023-10-10T02:43:13.577Z,99.25
2023-10-10T02:45:46.359Z,98.82
2023-10-10T02:48:22.217Z,98.81
2023-10-10T02:50:53.119Z,99.49
2023-10-10T02:53:21.678Z,99.17
2023-10-10T02:55:53.133Z,98.93
2023-10-10T02:58:29.976Z,98.95
2023-10-10T03:00:59.187Z,99.13
2023-10-10T03:03:28.098Z,98.77
2023-10-10T03:05:56.729Z,98.79
2023-10-10T03:08:32.214Z,98.08
2023-10-10T03:11:04.194Z,97.59
2023-10-10T03:13:37.671Z,98.42
2023-10-10T03:16:33.195Z,97.25
2023-10-10T03:19:04.510Z,97.49
2023-10-10T03:21:51.092Z,98.14
2023-10-10T03:24:29.148Z,98.35
2023-10-10T03:27:32.807Z,98.28
2023-10-10T03:30:19.220Z,98.56
2023-10-10T03:33:06.157Z,98.66
2023-10-10T03:35:53.975Z,98.95
2023-10-10T03:38:37.310Z,99.19
2023-10-10T03:41:25.529Z,98.12
2023-10-10T03:44:13.935Z,98.89
2023-10-10T03:46:57.988Z,99.21
2023-10-10T03:49:46.157Z,99.88
2023-10-10T03:52:33.537Z,100.00
2023-10-10T03:55:20.529Z,98.11
2023-10-10T03:58:07.019Z,98.79
2023-10-10T04:00:54.181Z,98.99
2023-10-10T04:03:41.278Z,98.99
2023-10-10T04:06:27.799Z,99.35
2023-10-10T04:09:15.195Z,99.11
2023-10-10T04:12:01.682Z,99.38
2023-10-10T04:14:48.980Z,99.68
2023-10-10T04:17:35.651Z,99.87
2023-10-10T04:20:23.220Z,99.90
2023-10-10T04:23:09.545Z,99.89
2023-10-10T04:25:56.290Z,99.92
2023-10-10T04:28:42.925Z,99.74
2023-10-10T04:31:29.769Z,100.00
2023-10-10T04:34:16.576Z,100.00
2023-10-10T04:37:03.954Z,99.62
2023-10-10T04:39:50.210Z,99.61
2023-10-10T04:42:37.397Z,99.58
2023-10-10T04:45:24.597Z,99.78
2023-10-10T04:48:11.390Z,98.84
2023-10-10T04:50:57.586Z,98.07
2023-10-10T04:53:44.628Z,99.00
2023-10-10T04:56:48.132Z,99.01
2023-10-10T04:59:34.964Z,98.21
2023-10-10T05:02:21.526Z,99.54
2023-10-10T05:05:08.682Z,99.12
2023-10-10T05:07:54.924Z,98.68
2023-10-10T05:10:42.052Z,99.11
2023-10-10T05:13:28.585Z,99.28
2023-10-10T05:16:21.652Z,98.29
2023-10-10T05:19:07.966Z,98.61
2023-10-10T05:22:16.111Z,98.81
2023-10-10T05:24:51.166Z,98.44
2023-10-10T05:27:31.548Z,98.82
2023-10-10T05:30:01.017Z,98.37
2023-10-10T05:32:33.827Z,98.57
2023-10-10T05:35:05.129Z,98.91
2023-10-10T05:37:33.675Z,98.31
2023-10-10T05:40:03.045Z,99.07
2023-10-10T05:42:35.539Z,99.14
2023-10-10T05:45:10.163Z,99.21
2023-10-10T05:47:39.062Z,97.96
2023-10-10T05:50:11.668Z,97.57
2023-10-10T05:52:39.728Z,98.45
2023-10-10T05:55:12.099Z,98.45
2023-10-10T05:57:41.386Z,98.31
2023-10-10T06:00:12.734Z,97.67
2023-10-10T06:02:49.039Z,97.35
2023-10-10T06:05:18.833Z,97.38
2023-10-10T06:07:49.815Z,97.17
2023-10-10T06:10:18.058Z,95.12
2023-10-10T06:12:50.039Z,96.57
2023-10-10T06:15:19.607Z,95.69
2023-10-10T06:17:50.275Z,95.42
2023-10-10T06:20:23.370Z,95.08
2023-10-10T06:22:54.708Z,92.13
2023-10-10T06:25:24.874Z,93.16
2023-10-10T06:28:02.029Z,91.01
2023-10-10T06:30:30.589Z,91.25
2023-10-10T06:33:10.609Z,86.02
2023-10-10T06:35:39.517Z,85.05
2023-10-10T06:38:11.817Z,86.08
2023-10-10T06:40:54.450Z,88.19
2023-10-10T06:43:22.810Z,87.69
2023-10-10T06:45:56.534Z,85.60
2023-10-10T06:48:26.547Z,85.98
2023-10-10T06:50:55.107Z,87.12
2023-10-10T06:53:37.972Z,87.49
2023-10-10T06:56:19.435Z,86.45
2023-10-10T06:58:47.599Z,86.92
2023-10-10T07:01:23.359Z,87.18
2023-10-10T07:03:58.285Z,90.57
2023-10-10T07:06:31.919Z,90.64
2023-10-10T07:09:19.248Z,91.87
2023-10-10T07:11:51.556Z,93.04
2023-10-10T07:14:20.049Z,94.16
2023-10-10T07:16:49.386Z,93.80
2023-10-10T07:19:21.313Z,94.53
2023-10-10T07:21:53.251Z,94.52
2023-10-10T07:24:30.379Z,95.13
2023-10-10T07:27:12.233Z,96.05
2023-10-10T07:29:43.316Z,95.64
2023-10-10T07:32:29.771Z,95.15
2023-10-10T07:35:00.523Z,94.73
2023-10-10T07:37:31.184Z,94.92
2023-10-10T07:40:18.170Z,93.98
2023-10-10T07:42:59.879Z,96.42
2023-10-10T07:45:35.993Z,93.86
2023-10-10T07:48:25.607Z,94.71
2023-10-10T07:51:07.973Z,95.45
2023-10-10T07:53:51.864Z,92.16
2023-10-10T07:56:21.495Z,93.60
2023-10-10T07:58:58.742Z,89.23
2023-10-10T08:01:31.788Z,89.39
2023-10-10T08:04:06.528Z,90.43
2023-10-10T08:06:36.451Z,90.58
2023-10-10T08:09:12.384Z,86.88
2023-10-10T08:11:48.110Z,86.69
2023-10-10T08:14:19.552Z,88.27
2023-10-10T08:17:01.457Z,88.43
2023-10-10T08:19:35.398Z,89.12
2023-10-10T08:22:14.889Z,87.98
2023-10-10T08:24:46.704Z,87.93
2023-10-10T08:27:16.168Z,90.10
2023-10-10T08:29:49.561Z,87.11
2023-10-10T08:32:21.642Z,88.29
2023-10-10T08:34:58.464Z,85.93
2023-10-10T08:37:32.492Z,88.26
2023-10-10T08:40:17.794Z,87.10
2023-10-10T08:43:04.493Z,88.48
2023-10-10T08:45:46.068Z,88.17
2023-10-10T08:48:18.459Z,83.23
2023-10-10T08:50:57.736Z,82.16
2023-10-10T08:53:30.091Z,88.30
2023-10-10T08:56:00.805Z,79.39
2023-10-10T08:58:34.060Z,78.65
2023-10-10T09:01:16.730Z,80.54
2023-10-10T09:03:49.296Z,83.46
2023-10-10T09:06:32.787Z,83.84
2023-10-10T09:09:27.514Z,81.69
2023-10-10T09:12:17.916Z,82.94
2023-10-10T09:15:26.764Z,83.68
2023-10-10T09:18:22.388Z,83.93
2023-10-10T09:21:35.991Z,84.29
2023-10-10T09:24:35.206Z,81.78
2023-10-10T09:27:41.543Z,86.74
2023-10-10T09:30:22.716Z,80.29
2023-10-10T09:33:03.349Z,80.49
2023-10-10T09:36:01.006Z,87.68
2023-10-10T09:38:55.930Z,78.58
2023-10-10T09:42:00.542Z,79.45
2023-10-10T09:45:07.872Z,81.44
2023-10-10T09:48:19.520Z,80.27
2023-10-10T09:54:11.528Z,72.25
2023-10-10T09:56:49.567Z,75.29
2023-10-10T09:59:30.673Z,75.06
2023-10-10T10:02:07.095Z,75.90
2023-10-10T10:04:58.956Z,87.20
2023-10-10T10:07:58.889Z,82.01
2023-10-10T10:10:50.540Z,83.60
2023-10-10T10:13:35.720Z,80.09
2023-10-10T10:16:27.750Z,81.10
2023-10-10T10:19:16.369Z,80.84
2023-10-10T10:22:10.421Z,83.52
2023-10-10T10:25:38.237Z,83.46
2023-10-10T10:28:32.631Z,85.88
2023-10-10T10:31:36.245Z,85.68
2023-10-10T10:34:46.467Z,83.95
2023-10-10T10:37:38.908Z,81.60
2023-10-10T10:40:18.639Z,79.02
2023-10-10T10:43:02.861Z,82.98
2023-10-10T10:46:14.153Z,77.83
2023-10-10T10:49:07.815Z,74.68
2023-10-10T10:51:47.374Z,78.69
2023-10-10T10:55:02.045Z,83.42
2023-10-10T11:01:13.882Z,83.17
2023-10-10T11:04:13.616Z,83.17
2023-10-10T11:07:13.961Z,81.79
2023-10-10T11:10:16.338Z,81.70
2023-10-10T11:13:00.485Z,81.93
2023-10-10T11:15:53.997Z,75.53
2023-10-10T11:18:40.254Z,78.25
2023-10-10T11:21:36.079Z,72.43
2023-10-10T11:24:08.814Z,75.43
2023-10-10T11:27:13.434Z,73.33
2023-10-10T11:30:09.187Z,75.65
2023-10-10T11:32:50.018Z,77.53
2023-10-10T11:35:53.379Z,78.05
2023-10-10T11:38:45.793Z,78.19
2023-10-10T11:41:31.863Z,79.04
2023-10-10T11:44:08.973Z,77.74
2023-10-10T11:46:43.858Z,74.72
2023-10-10T11:49:20.776Z,73.87
2023-10-10T11:51:55.059Z,76.26
2023-10-10T11:54:33.345Z,79.84
2023-10-10T11:57:06.256Z,77.88
2023-10-10T11:59:47.033Z,80.29
2023-10-10T12:02:44.887Z,81.29
2023-10-10T12:05:37.178Z,80.73
2023-10-10T12:08:22.304Z,81.41
2023-10-10T12:11:09.698Z,82.38
2023-10-10T12:13:48.317Z,81.86
2023-10-10T12:16:27.239Z,76.33
2023-10-10T12:19:02.123Z,76.41
2023-10-10T12:21:42.731Z,75.85
2023-10-10T12:24:17.335Z,75.32
2023-10-10T12:29:49.930Z,74.42
2023-10-10T12:32:38.521Z,75.96
2023-10-10T12:35:12.378Z,80.09
2023-10-10T12:40:38.689Z,80.77
2023-10-10T12:43:19.168Z,73.83
2023-10-10T12:45:52.987Z,73.36
2023-10-10T12:48:33.175Z,75.17
2023-10-10T12:51:09.102Z,73.85
2023-10-10T12:53:44.871Z,74.21
2023-10-10T12:56:22.400Z,75.17
2023-10-10T12:59:25.926Z,75.24
2023-10-10T13:02:11.012Z,76.78
2023-10-10T13:04:55.822Z,77.12
2023-10-10T13:07:42.706Z,77.83
2023-10-10T13:10:22.058Z,76.81
2023-10-10T13:12:56.099Z,77.24
2023-10-10T13:15:49.047Z,77.75
2023-10-10T13:18:26.866Z,77.19
2023-10-10T13:21:00.460Z,76.90
2023-10-10T13:26:33.339Z,78.09
2023-10-10T13:29:08.492Z,78.27
2023-10-10T13:31:53.589Z,76.68
2023-10-10T13:34:27.253Z,73.97
2023-10-10T13:37:13.132Z,70.61
2023-10-10T13:39:45.664Z,69.08
2023-10-10T13:42:23.107Z,73.21
2023-10-10T13:44:53.625Z,74.35
2023-10-10T13:47:33.763Z,78.94
2023-10-10T13:50:31.750Z,78.86
2023-10-10T13:53:07.993Z,74.07
2023-10-10T13:55:49.425Z,73.39
2023-10-10T13:58:21.341Z,72.45
2023-10-10T14:01:18.148Z,74.90
2023-10-10T14:03:58.606Z,75.54
2023-10-10T14:06:49.008Z,75.04
2023-10-10T14:10:04.363Z,74.93
2023-10-10T14:12:37.175Z,80.27
2023-10-10T14:15:13.496Z,79.74
2023-10-10T14:17:54.815Z,76.86
2023-10-10T14:20:27.012Z,77.59
2023-10-10T14:23:05.063Z,76.51
2023-10-10T14:25:52.554Z,83.02
2023-10-10T14:28:36.359Z,78.24
2023-10-10T14:31:28.777Z,77.13
2023-10-10T14:34:07.050Z,77.75
2023-10-10T14:36:41.312Z,78.13
2023-10-10T14:39:30.157Z,78.66
2023-10-10T14:42:11.408Z,79.04
2023-10-10T14:44:49.055Z,80.59
2023-10-10T14:47:37.375Z,82.20
2023-10-10T14:50:33.246Z,79.99
2023-10-10T14:53:14.808Z,80.19
2023-10-10T14:55:47.238Z,80.12
2023-10-10T14:58:19.666Z,80.37
2023-10-10T15:00:53.267Z,80.19
2023-10-10T15:03:59.431Z,81.52
2023-10-10T15:06:42.253Z,81.25
2023-10-10T15:09:17.277Z,81.79
2023-10-10T15:11:49.261Z,83.07
2023-10-10T15:14:28.372Z,84.42
2023-10-10T15:17:06.592Z,82.30
2023-10-10T15:19:47.703Z,83.15
2023-10-10T15:22:32.069Z,86.33
2023-10-10T15:25:15.520Z,85.55
2023-10-10T15:27:51.121Z,83.64
2023-10-10T15:31:01.665Z,83.51
2023-10-10T15:33:34.425Z,86.25
2023-10-10T15:36:18.776Z,83.87
2023-10-10T15:38:51.782Z,84.21
2023-10-10T15:44:32.395Z,85.19
2023-10-10T15:47:15.377Z,86.25
2023-10-10T15:50:21.106Z,86.18
2023-10-10T15:52:55.484Z,84.56
2023-10-10T15:55:34.583Z,84.55
2023-10-10T15:58:25.466Z,84.94
2023-10-10T16:01:01.351Z,85.01
2023-10-10T16:03:57.060Z,85.95
2023-10-10T16:06:29.424Z,86.01
2023-10-10T16:09:12.438Z,86.20
2023-10-10T16:11:47.255Z,87.14
2023-10-10T16:14:32.727Z,88.55
2023-10-10T16:17:21.979Z,89.04
2023-10-10T16:19:56.760Z,90.99
2023-10-10T16:22:46.860Z,90.90
2023-10-10T16:25:35.295Z,91.50
2023-10-10T16:28:29.414Z,91.92
2023-10-10T16:31:21.820Z,92.22
2023-10-10T16:34:00.969Z,91.83
2023-10-10T16:36:34.311Z,89.70
2023-10-10T16:39:12.620Z,88.63
2023-10-10T16:41:51.954Z,88.73
2023-10-10T16:44:42.537Z,88.77
2023-10-10T16:50:09.001Z,87.26
2023-10-10T16:52:45.190Z,87.19
2023-10-10T16:55:22.949Z,87.24
2023-10-10T16:57:58.774Z,86.80
2023-10-10T17:00:37.111Z,87.36
2023-10-10T17:03:31.424Z,88.18
2023-10-10T17:06:07.929Z,88.12
2023-10-10T17:08:58.969Z,88.27
2023-10-10T17:11:45.775Z,88.24
2023-10-10T17:14:20.177Z,88.41
2023-10-10T17:16:58.065Z,89.54
2023-10-10T17:19:38.388Z,88.86
2023-10-10T17:22:15.278Z,89.70
2023-10-10T17:25:12.040Z,89.81
2023-10-10T17:27:53.873Z,90.47
2023-10-10T17:30:48.481Z,90.57
2023-10-10T17:33:23.483Z,90.78
2023-10-10T17:35:53.671Z,89.97
2023-10-10T17:38:24.620Z,89.88
2023-10-10T17:41:10.339Z,89.42
2023-10-10T17:43:43.845Z,89.73
2023-10-10T17:46:22.351Z,89.58
2023-10-10T17:49:03.987Z,89.41
2023-10-10T17:51:37.785Z,89.44
2023-10-10T17:54:08.253Z,89.63
2023-10-10T17:56:40.312Z,89.71
2023-10-10T17:59:15.900Z,90.64
2023-10-10T18:01:58.158Z,90.15
2023-10-10T18:04:48.012Z,90.08
2023-10-10T18:07:20.560Z,89.80
2023-10-10T18:09:56.529Z,89.50
2023-10-10T18:12:41.289Z,89.57
2023-10-10T18:15:14.935Z,89.26
2023-10-10T18:17:57.399Z,89.57
2023-10-10T18:20:31.728Z,89.35
2023-10-10T18:23:11.686Z,89.32
2023-10-10T18:25:49.029Z,90.29
2023-10-10T18:28:24.623Z,89.29
2023-10-10T18:30:54.229Z,89.75
2023-10-10T18:33:25.958Z,89.80
2023-10-10T18:35:58.739Z,88.85
2023-10-10T18:38:36.301Z,88.92
2023-10-10T18:41:12.297Z,89.54
2023-10-10T18:43:43.863Z,89.96
2023-10-10T18:46:13.674Z,89.33
2023-10-10T18:48:52.129Z,89.34
2023-10-10T18:51:38.004Z,89.61
2023-10-10T18:54:10.340Z,89.26
2023-10-10T18:56:45.951Z,89.05
2023-10-10T18:59:14.858Z,89.45
2023-10-10T19:01:48.310Z,90.30
2023-10-10T19:04:21.822Z,88.91
2023-10-10T19:06:53.217Z,89.14
2023-10-10T19:09:26.829Z,89.83
2023-10-10T19:11:59.262Z,91.43
2023-10-10T19:14:35.512Z,89.94
2023-10-10T19:17:05.291Z,89.80
2023-10-10T19:19:40.395Z,90.03
2023-10-10T19:22:09.670Z,90.84
2023-10-10T19:24:40.110Z,90.96
2023-10-10T19:27:14.038Z,91.22
2023-10-10T19:29:43.270Z,93.56
2023-10-10T19:32:12.505Z,93.42
2023-10-10T19:34:41.162Z,94.99
2023-10-10T19:37:10.712Z,94.53
2023-10-10T19:39:40.154Z,95.73
2023-10-10T19:42:08.572Z,96.77
2023-10-10T19:44:36.991Z,96.44
2023-10-10T19:47:08.533Z,97.51
2023-10-10T19:49:37.670Z,98.03
2023-10-10T19:52:07.772Z,97.30
2023-10-10T19:54:36.428Z,97.03
2023-10-10T19:57:04.681Z,97.77
2023-10-10T19:59:34.073Z,97.94
2023-10-10T20:02:02.629Z,97.79
2023-10-10T20:04:35.474Z,98.27
2023-10-10T20:07:04.670Z,99.12
2023-10-10T20:09:37.978Z,99.55
2023-10-10T20:12:06.524Z,99.35
2023-10-10T20:14:36.608Z,98.53
2023-10-10T20:17:04.965Z,98.18
2023-10-10T20:19:33.246Z,98.19
2023-10-10T20:22:01.933Z,97.73
2023-10-10T20:24:30.134Z,97.93
2023-10-10T20:26:58.480Z,98.71
2023-10-10T20:29:28.032Z,98.00
2023-10-10T20:31:56.468Z,98.47
2023-10-10T20:34:24.734Z,97.79
2023-10-10T20:36:57.850Z,98.54
2023-10-10T20:39:27.835Z,99.65
2023-10-10T20:41:57.037Z,99.09
2023-10-10T20:44:27.047Z,98.98
2023-10-10T20:46:55.123Z,99.05
2023-10-10T20:49:23.436Z,98.13
2023-10-10T20:51:56.511Z,98.84
2023-10-10T20:54:27.652Z,99.94
2023-10-10T20:56:55.694Z,98.46
2023-10-10T20:59:23.810Z,98.31
2023-10-10T21:01:52.197Z,98.48
2023-10-10T21:04:20.377Z,98.32
2023-10-10T21:06:48.431Z,98.63
2023-10-10T21:09:17.136Z,98.17
2023-10-10T21:11:45.584Z,98.31
2023-10-10T21:14:13.727Z,98.27
2023-10-10T21:16:42.260Z,99.23
2023-10-10T21:19:12.303Z,99.38
2023-10-10T21:21:40.312Z,99.95
2023-10-10T21:24:08.779Z,100.00
2023-10-10T21:26:37.609Z,100.00
2023-10-10T21:29:05.670Z,100.00
2023-10-10T21:34:19.079Z,100.00
2023-10-10T21:36:48.094Z,100.00
2023-10-10T21:39:20.204Z,100.00
2023-10-10T21:41:51.098Z,99.90
2023-10-10T21:44:19.661Z,99.68
2023-10-10T21:46:47.489Z,100.00
2023-10-10T21:49:15.940Z,99.94
2023-10-10T21:51:44.921Z,100.00
2023-10-10T21:54:13.150Z,100.00
2023-10-10T21:56:44.252Z,100.00
2023-10-10T21:59:12.343Z,99.67
2023-10-10T22:01:40.313Z,99.95
2023-10-10T22:04:09.012Z,99.61
2023-10-10T22:06:37.305Z,100.00
2023-10-10T22:09:07.905Z,100.00
2023-10-10T22:11:36.479Z,100.00
2023-10-10T22:14:05.684Z,100.00
2023-10-10T22:16:33.887Z,99.00
2023-10-10T22:19:02.453Z,98.85
2023-10-10T22:21:32.207Z,98.58
2023-10-10T22:24:00.883Z,98.65
2023-10-10T22:26:31.269Z,98.64
2023-10-10T22:28:59.345Z,98.70
2023-10-10T22:31:28.610Z,99.10
2023-10-10T22:33:57.050Z,99.22
2023-10-10T22:36:26.558Z,99.76
2023-10-10T22:38:55.048Z,99.50
2023-10-10T22:41:23.537Z,100.00
2023-10-10T22:43:51.846Z,100.00
2023-10-10T22:46:19.938Z,100.00
2023-10-10T22:48:48.464Z,100.00
2023-10-10T22:51:16.684Z,100.00
2023-10-10T22:53:47.792Z,100.00
2023-10-10T22:56:19.641Z,99.85
2023-10-10T22:58:47.958Z,100.00
2023-10-10T23:01:16.620Z,100.00
2023-10-10T23:03:47.138Z,100.00
2023-10-10T23:06:15.774Z,100.00
2023-10-10T23:08:44.386Z,100.00
2023-10-10T23:11:14.929Z,100.00
2023-10-10T23:13:42.956Z,100.00
2023-10-10T23:16:18.621Z,100.00
2023-10-10T23:18:47.316Z,100.00
2023-10-10T23:21:16.078Z,100.00
2023-10-10T23:23:44.279Z,100.00
2023-10-10T23:26:12.384Z,100.00
2023-10-10T23:28:41.990Z,100.00
2023-10-10T23:31:09.988Z,100.00
2023-10-10T23:33:38.148Z,100.00
2023-10-10T23:36:08.058Z,100.00
2023-10-10T23:38:36.257Z,100.00
2023-10-10T23:41:06.262Z,100.00
2023-10-10T23:43:38.484Z,100.00
2023-10-10T23:46:07.978Z,100.00
2023-10-10T23:48:37.363Z,100.00
2023-10-10T23:51:08.694Z,100.00
2023-10-10T23:53:38.311Z,100.00
2023-10-10T23:56:06.896Z,99.58
2023-10-10T23:58:36.681Z,99.23
